<?xml version="1.0" encoding="UTF-8" standalone="no" ?>
<gpx xmlns="http://www.topografix.com/GPX/1/1" xmlns:xsi="http://www.w3.org/2001/XMLSchema-instance" xsi:schemaLocation="http://www.topografix.com/GPX/1/1 http://www.topografix.com/GPX/1/1/gpx.xsd" version="1.1" creator="VisuGPX - https://www.visugpx.com">
  <metadata>
    <name>CrossTriathlon M</name>
    <desc><![CDATA[[titre]Triathlon Côte de Granit Rose[/titre]
CrossTriathlon M
]]></desc>
  </metadata>
  <trk>
    <name><![CDATA[Natation]]></name>
    <extensions>
      <line xmlns="http://www.topografix.com/GPX/gpx_style/0/2">
        <color>0facf0</color>
        <opacity>1</opacity>
        <width>4</width>
      </line>
    </extensions>
    <trkseg>
      <trkpt lat="48.83004" lon="-3.52243">
        <ele>4.5</ele>
        <time>2015-06-07T08:59:56.000Z</time>
      </trkpt>
      <trkpt lat="48.83028" lon="-3.52239">
        <ele>2</ele>
        <time>2015-06-07T09:00:02.000Z</time>
      </trkpt>
      <trkpt lat="48.83034" lon="-3.52237">
        <ele>1.8</ele>
        <time>2015-06-07T09:00:06.000Z</time>
      </trkpt>
      <trkpt lat="48.83041" lon="-3.52235">
        <ele>1.5</ele>
        <time>2015-06-07T09:00:11.000Z</time>
      </trkpt>
      <trkpt lat="48.83051" lon="-3.52237">
        <ele>1.2</ele>
        <time>2015-06-07T09:00:16.000Z</time>
      </trkpt>
      <trkpt lat="48.83066" lon="-3.52237">
        <ele>1</ele>
        <time>2015-06-07T09:00:22.000Z</time>
      </trkpt>
      <trkpt lat="48.83076" lon="-3.52231">
        <ele>1</ele>
        <time>2015-06-07T09:00:29.000Z</time>
      </trkpt>
      <trkpt lat="48.83091" lon="-3.52229">
        <time>2015-06-07T09:00:37.000Z</time>
      </trkpt>
      <trkpt lat="48.83085" lon="-3.52229">
        <time>2015-06-07T09:00:48.000Z</time>
      </trkpt>
      <trkpt lat="48.83103" lon="-3.52224">
        <time>2015-06-07T09:01:05.000Z</time>
      </trkpt>
      <trkpt lat="48.83126" lon="-3.52232">
        <time>2015-06-07T09:01:36.000Z</time>
      </trkpt>
      <trkpt lat="48.83197" lon="-3.52206">
        <time>2015-06-07T09:02:51.000Z</time>
      </trkpt>
      <trkpt lat="48.83286" lon="-3.52192">
        <time>2015-06-07T09:05:09.000Z</time>
      </trkpt>
      <trkpt lat="48.83371" lon="-3.52121">
        <time>2015-06-07T09:07:24.000Z</time>
      </trkpt>
      <trkpt lat="48.83425" lon="-3.52052">
        <time>2015-06-07T09:09:06.000Z</time>
      </trkpt>
      <trkpt lat="48.83412" lon="-3.51968">
        <time>2015-06-07T09:10:20.000Z</time>
      </trkpt>
      <trkpt lat="48.83402" lon="-3.51908">
        <time>2015-06-07T09:11:16.000Z</time>
      </trkpt>
      <trkpt lat="48.83414" lon="-3.51844">
        <time>2015-06-07T09:12:08.000Z</time>
      </trkpt>
      <trkpt lat="48.8339" lon="-3.51796">
        <time>2015-06-07T09:13:08.000Z</time>
      </trkpt>
      <trkpt lat="48.83355" lon="-3.5174">
        <time>2015-06-07T09:14:00.000Z</time>
      </trkpt>
      <trkpt lat="48.83343" lon="-3.51688">
        <time>2015-06-07T09:14:53.000Z</time>
      </trkpt>
      <trkpt lat="48.8332" lon="-3.51634">
        <ele>1.3</ele>
        <time>2015-06-07T09:15:46.000Z</time>
      </trkpt>
      <trkpt lat="48.83285" lon="-3.51595">
        <ele>5.5</ele>
        <time>2015-06-07T09:16:30.000Z</time>
      </trkpt>
      <trkpt lat="48.8327" lon="-3.51688">
        <ele>1.1</ele>
        <time>2015-06-07T09:17:18.000Z</time>
      </trkpt>
      <trkpt lat="48.83276" lon="-3.51756">
        <time>2015-06-07T09:18:03.000Z</time>
      </trkpt>
      <trkpt lat="48.83276" lon="-3.51809">
        <ele>1</ele>
        <time>2015-06-07T09:18:53.000Z</time>
      </trkpt>
      <trkpt lat="48.83273" lon="-3.51868">
        <ele>2</ele>
        <time>2015-06-07T09:19:40.000Z</time>
      </trkpt>
      <trkpt lat="48.83273" lon="-3.51937">
        <ele>1.2</ele>
        <time>2015-06-07T09:20:24.000Z</time>
      </trkpt>
      <trkpt lat="48.83291" lon="-3.51996">
        <ele>1</ele>
        <time>2015-06-07T09:21:16.000Z</time>
      </trkpt>
      <trkpt lat="48.83261" lon="-3.5204">
        <ele>2.5</ele>
        <time>2015-06-07T09:22:10.000Z</time>
      </trkpt>
      <trkpt lat="48.83219" lon="-3.52034">
        <ele>3.8</ele>
        <time>2015-06-07T09:23:01.000Z</time>
      </trkpt>
      <trkpt lat="48.83172" lon="-3.52034">
        <ele>1.3</ele>
        <time>2015-06-07T09:23:50.000Z</time>
      </trkpt>
      <trkpt lat="48.8313" lon="-3.52067">
        <ele>1</ele>
        <time>2015-06-07T09:24:39.000Z</time>
      </trkpt>
      <trkpt lat="48.831" lon="-3.52087">
        <time>2015-06-07T09:25:24.000Z</time>
      </trkpt>
      <trkpt lat="48.83063" lon="-3.52114">
        <time>2015-06-07T09:26:14.000Z</time>
      </trkpt>
      <trkpt lat="48.83018" lon="-3.52151">
        <ele>2.7</ele>
        <time>2015-06-07T09:27:03.000Z</time>
      </trkpt>
      <trkpt lat="48.82972" lon="-3.52178">
        <ele>8.4</ele>
        <time>2015-06-07T09:27:47.000Z</time>
      </trkpt>
      <trkpt lat="48.82905" lon="-3.52165">
        <ele>7.6</ele>
        <time>2015-06-07T09:28:12.000Z</time>
      </trkpt>
    </trkseg>
  </trk>
</gpx>